Time;durP1;ratioP1;P1;durP2;ratioP2;P2;SDS_P1;SDS_P2;PMS_P1;PMS_P2;Temp;Humidity;BMP_temperature;BMP_pressure;BME280_temperature;BME280_humidity;BME280_pressure;Samples;Min_cycle;Max_cycle;Signal;HPM_P1;HPM_P2
2022/09/09 00:00:51;;;;;;;2.53;0.98;;;16.90;99.90;;;;;;5056502;28;20223;-82
2022/09/09 00:03:28;;;;;;;1.00;0.88;;;16.90;99.90;;;;;;5051626;28;20195;-84
2022/09/09 00:06:07;;;;;;;3.15;1.10;;;16.90;99.90;;;;;;5046430;28;20200;-82
2022/09/09 00:08:54;;;;;;;1.92;0.98;;;16.90;99.90;;;;;;5049954;28;20215;-83
2022/09/09 00:11:36;;;;;;;1.30;0.90;;;16.90;99.90;;;;;;5059631;28;20619;-84
2022/09/09 00:14:16;;;;;;;1.02;0.85;;;17.00;99.90;;;;;;5070023;28;20192;-84
2022/09/09 00:16:55;;;;;;;2.45;0.80;;;17.00;99.90;;;;;;5072496;28;20195;-84
2022/09/09 00:19:33;;;;;;;2.28;0.90;;;17.00;99.90;;;;;;5051158;28;20189;-83
2022/09/09 00:22:17;;;;;;;2.13;0.90;;;17.00;99.90;;;;;;5051213;28;20246;-84
2022/09/09 00:24:49;;;;;;;2.45;0.98;;;17.00;99.90;;;;;;5051753;28;20793;-83
2022/09/09 00:27:29;;;;;;;3.63;0.90;;;17.00;99.90;;;;;;5051211;28;20218;-85
2022/09/09 00:30:04;;;;;;;1.42;0.80;;;17.10;99.90;;;;;;5051600;28;20232;-84
2022/09/09 00:32:36;;;;;;;2.25;1.15;;;17.10;99.90;;;;;;5048947;28;21152;-85
2022/09/09 00:35:17;;;;;;;3.80;1.10;;;17.10;99.90;;;;;;5053175;28;20570;-84
2022/09/09 00:37:50;;;;;;;2.17;0.90;;;17.20;99.90;;;;;;5051536;28;20322;-83
2022/09/09 00:40:34;;;;;;;1.60;0.80;;;17.20;99.90;;;;;;5051127;28;20245;-84
2022/09/09 00:43:26;;;;;;;3.17;1.02;;;17.30;99.90;;;;;;5053653;28;20266;-84
2022/09/09 00:46:18;;;;;;;1.83;0.98;;;17.40;99.90;;;;;;5050786;28;20265;-83
2022/09/09 00:48:55;;;;;;;2.50;1.10;;;17.50;99.90;;;;;;5052985;28;20267;-84
2022/09/09 00:51:38;;;;;;;2.40;1.20;;;17.50;99.90;;;;;;5054985;28;20195;-84
2022/09/09 00:54:34;;;;;;;2.05;1.10;;;17.50;99.90;;;;;;5050079;28;20196;-82
2022/09/09 00:57:16;;;;;;;2.20;0.90;;;17.60;99.90;;;;;;5051239;28;20200;-84
2022/09/09 00:59:53;;;;;;;1.48;0.82;;;17.60;99.90;;;;;;5052632;28;20204;-83
2022/09/09 01:02:33;;;;;;;1.88;1.00;;;17.60;99.90;;;;;;5050992;28;20219;-84
2022/09/09 01:05:09;;;;;;;1.00;0.88;;;17.60;99.90;;;;;;5051119;28;20192;-84
2022/09/09 01:07:41;;;;;;;1.85;1.05;;;17.50;99.90;;;;;;5054815;28;20273;-85
2022/09/09 01:10:20;;;;;;;2.97;0.80;;;17.60;99.90;;;;;;5052809;28;20302;-86
2022/09/09 01:12:54;;;;;;;2.25;0.80;;;17.60;99.90;;;;;;5050405;28;20223;-86
2022/09/09 01:15:30;;;;;;;0.93;0.70;;;17.60;99.90;;;;;;5053225;28;20302;-84
2022/09/09 01:18:06;;;;;;;1.25;0.77;;;17.70;99.90;;;;;;5052955;28;20207;-85
2022/09/09 01:20:50;;;;;;;1.38;0.90;;;17.70;99.90;;;;;;5051472;28;20241;-84
2022/09/09 01:23:38;;;;;;;1.30;0.80;;;17.80;99.90;;;;;;5056666;28;20694;-84
2022/09/09 01:26:23;;;;;;;1.67;0.70;;;17.90;99.90;;;;;;5051391;28;20193;-84
2022/09/09 01:28:55;;;;;;;1.90;0.70;;;17.90;99.90;;;;;;5050615;28;20192;-85
2022/09/09 01:31:32;;;;;;;0.88;0.60;;;18.10;99.90;;;;;;5050500;28;20214;-84
2022/09/09 01:34:02;;;;;;;1.70;0.70;;;18.20;99.90;;;;;;5053254;28;20212;-85
2022/09/09 01:36:44;;;;;;;1.48;0.70;;;18.20;99.90;;;;;;5052589;28;20675;-85
2022/09/09 01:39:16;;;;;;;1.08;0.70;;;18.30;99.90;;;;;;5051959;28;20235;-85
2022/09/09 01:41:49;;;;;;;1.20;0.70;;;18.40;99.90;;;;;;5064262;28;20248;-83
2022/09/09 01:44:21;;;;;;;1.27;0.60;;;18.50;99.90;;;;;;5077420;28;20196;-83
2022/09/09 01:46:52;;;;;;;1.05;0.63;;;18.60;99.90;;;;;;5073979;28;20703;-83
2022/09/09 01:49:23;;;;;;;2.92;0.70;;;18.60;99.90;;;;;;5053351;28;20231;-84
2022/09/09 01:51:56;;;;;;;1.15;0.70;;;18.70;99.90;;;;;;5051303;28;20195;-84
2022/09/09 01:54:30;;;;;;;0.95;0.60;;;18.70;99.90;;;;;;5052169;28;20682;-82
2022/09/09 01:57:11;;;;;;;1.05;0.50;;;18.70;99.90;;;;;;5052451;28;21244;-85
2022/09/09 02:00:04;;;;;;;0.68;0.47;;;18.80;99.90;;;;;;5053892;28;20188;-84
2022/09/09 02:02:38;;;;;;;1.02;0.50;;;18.90;99.90;;;;;;5056409;28;20305;-78
2022/09/09 02:05:30;;;;;;;0.88;0.60;;;19.10;99.90;;;;;;5046287;28;20197;-83
2022/09/09 02:08:08;;;;;;;0.57;0.43;;;19.20;99.90;;;;;;5050602;28;20195;-84
2022/09/09 02:10:44;;;;;;;0.50;0.40;;;19.40;99.90;;;;;;5050665;28;20210;-83
2022/09/09 02:13:21;;;;;;;0.43;0.43;;;19.50;99.90;;;;;;5047819;28;20249;-82
2022/09/09 02:15:58;;;;;;;0.40;0.40;;;19.60;99.90;;;;;;5047884;28;20203;-82
2022/09/09 02:18:31;;;;;;;0.52;0.52;;;19.70;99.90;;;;;;5051300;28;20200;-84
2022/09/09 02:21:03;;;;;;;0.40;0.40;;;20.00;99.90;;;;;;5050092;28;20307;-84
2022/09/09 02:23:35;;;;;;;0.57;0.35;;;20.20;99.90;;;;;;5051099;28;20203;-83
2022/09/09 02:26:07;;;;;;;0.73;0.43;;;20.30;99.90;;;;;;5047880;28;20512;-83
2022/09/09 02:28:42;;;;;;;0.57;0.43;;;20.30;99.90;;;;;;5047677;28;20244;-84
2022/09/09 02:31:13;;;;;;;1.15;0.40;;;20.40;99.90;;;;;;5048947;28;20204;-83
2022/09/09 02:33:46;;;;;;;0.85;0.30;;;20.40;99.90;;;;;;5057156;28;20210;-83
2022/09/09 02:36:20;;;;;;;1.15;0.40;;;20.60;99.90;;;;;;5050963;28;20200;-83
2022/09/09 02:38:52;;;;;;;0.50;0.50;;;20.70;99.90;;;;;;5049020;28;20238;-84
2022/09/09 02:41:28;;;;;;;0.77;0.50;;;20.60;99.90;;;;;;5050320;28;20771;-84
2022/09/09 02:44:01;;;;;;;0.60;0.60;;;20.70;99.90;;;;;;5053640;28;20203;-84
2022/09/09 02:46:51;;;;;;;1.13;0.43;;;20.60;99.90;;;;;;5052245;28;20211;-85
2022/09/09 02:49:27;;;;;;;0.50;0.40;;;20.50;99.90;;;;;;5052418;28;20224;-84
2022/09/09 02:52:05;;;;;;;0.35;0.32;;;20.60;99.90;;;;;;5055353;28;20195;-84
2022/09/09 02:54:38;;;;;;;0.55;0.55;;;20.70;99.90;;;;;;5049942;28;20265;-83
2022/09/09 02:57:13;;;;;;;0.30;0.30;;;20.70;99.90;;;;;;5052459;28;20231;-84
2022/09/09 02:59:47;;;;;;;1.30;0.50;;;20.70;99.90;;;;;;5055994;28;20192;-83
2022/09/09 03:02:18;;;;;;;0.60;0.45;;;20.80;99.90;;;;;;5050023;28;20726;-82
2022/09/09 03:04:51;;;;;;;0.50;0.30;;;20.90;99.90;;;;;;5054099;28;20210;-85
2022/09/09 03:07:22;;;;;;;0.43;0.40;;;20.90;99.90;;;;;;5074158;28;20196;-86
2022/09/09 03:09:54;;;;;;;0.40;0.40;;;20.90;99.90;;;;;;5059947;28;20196;-84
2022/09/09 03:12:25;;;;;;;0.40;0.30;;;21.00;99.90;;;;;;5057293;28;20314;-85
2022/09/09 03:14:58;;;;;;;0.40;0.40;;;20.90;99.90;;;;;;5057681;28;20206;-85
2022/09/09 03:17:30;;;;;;;0.50;0.38;;;20.90;99.90;;;;;;5057299;28;20206;-85
2022/09/09 03:20:01;;;;;;;0.30;0.30;;;21.00;99.90;;;;;;5052763;28;20706;-81
2022/09/09 03:22:32;;;;;;;0.68;0.40;;;21.10;99.90;;;;;;5051866;28;20238;-82
2022/09/09 03:25:03;;;;;;;1.23;0.30;;;21.10;99.90;;;;;;5052736;28;20278;-80
2022/09/09 03:27:34;;;;;;;0.50;0.40;;;21.20;99.90;;;;;;5060073;28;20200;-81
2022/09/09 03:30:07;;;;;;;0.63;0.30;;;21.20;99.90;;;;;;5052579;28;20192;-79
2022/09/09 03:32:40;;;;;;;0.40;0.30;;;21.20;99.90;;;;;;5048563;28;20204;-78
2022/09/09 03:35:11;;;;;;;0.47;0.47;;;21.10;99.90;;;;;;5049181;28;21970;-79
2022/09/09 03:37:42;;;;;;;0.65;0.50;;;21.10;99.90;;;;;;5050593;28;20196;-79
2022/09/09 03:40:14;;;;;;;0.70;0.50;;;21.10;99.90;;;;;;5049134;28;20211;-79
2022/09/09 03:42:44;;;;;;;1.73;0.57;;;21.10;99.90;;;;;;5053017;28;20695;-79
2022/09/09 03:45:17;;;;;;;1.08;0.50;;;21.00;99.90;;;;;;5049569;28;20658;-82
2022/09/09 03:47:48;;;;;;;1.90;0.95;;;21.00;99.90;;;;;;5048306;28;20226;-80
2022/09/09 03:50:19;;;;;;;3.45;0.85;;;21.20;99.90;;;;;;5047356;28;20234;-80
2022/09/09 03:52:50;;;;;;;1.63;0.88;;;21.20;99.90;;;;;;5048633;28;20862;-80
2022/09/09 03:55:21;;;;;;;3.42;1.10;;;21.20;99.90;;;;;;5054726;28;20207;-78
2022/09/09 03:57:52;;;;;;;3.30;0.95;;;21.20;99.90;;;;;;5058687;28;20576;-77
2022/09/09 04:00:26;;;;;;;6.55;1.15;;;21.30;99.90;;;;;;5048864;28;20204;-79
2022/09/09 04:02:57;;;;;;;3.00;0.90;;;21.30;99.90;;;;;;5046834;28;20231;-79
2022/09/09 04:05:28;;;;;;;0.68;0.50;;;21.30;99.90;;;;;;5047892;28;20226;-79
2022/09/09 04:07:59;;;;;;;1.35;0.77;;;21.30;99.90;;;;;;5051208;28;21025;-78
2022/09/09 04:10:30;;;;;;;2.90;0.70;;;21.50;99.90;;;;;;5048494;28;20207;-78
2022/09/09 04:13:01;;;;;;;0.52;0.47;;;21.50;99.90;;;;;;5047789;28;20455;-79
2022/09/09 04:15:36;;;;;;;0.30;0.20;;;21.50;99.90;;;;;;5047552;28;20666;-78
2022/09/09 04:18:07;;;;;;;0.32;0.32;;;21.50;99.90;;;;;;5048218;28;20285;-80
2022/09/09 04:20:38;;;;;;;0.65;0.40;;;21.40;99.90;;;;;;5046012;28;20707;-79
2022/09/09 04:23:08;;;;;;;1.30;0.57;;;21.40;99.90;;;;;;5048289;28;20322;-79
2022/09/09 04:25:40;;;;;;;0.43;0.43;;;21.50;99.90;;;;;;5048443;28;20200;-79
2022/09/09 04:28:10;;;;;;;0.98;0.40;;;21.50;99.90;;;;;;5047689;28;20219;-78
2022/09/09 04:30:43;;;;;;;0.40;0.40;;;21.40;99.90;;;;;;5047044;28;20208;-78
2022/09/09 04:33:15;;;;;;;1.25;0.50;;;21.50;99.90;;;;;;5048165;28;20204;-78
2022/09/09 04:35:49;;;;;;;0.98;0.60;;;21.60;99.90;;;;;;5048127;28;20207;-79
2022/09/09 04:38:20;;;;;;;1.38;0.47;;;21.50;99.90;;;;;;5053164;28;20238;-78
2022/09/09 04:40:51;;;;;;;0.40;0.40;;;21.40;99.90;;;;;;5047169;28;20223;-79
2022/09/09 04:43:22;;;;;;;0.43;0.40;;;21.50;99.90;;;;;;5052617;28;20227;-78
2022/09/09 04:45:55;;;;;;;1.08;0.30;;;21.50;99.90;;;;;;5047396;28;20220;-78
2022/09/09 04:48:27;;;;;;;0.40;0.38;;;21.60;99.90;;;;;;5047998;28;20193;-77
2022/09/09 04:51:02;;;;;;;0.38;0.38;;;21.60;99.90;;;;;;5046668;28;20683;-77
2022/09/09 04:53:33;;;;;;;0.40;0.40;;;21.50;99.90;;;;;;5045621;28;20214;-77
2022/09/09 04:56:09;;;;;;;0.52;0.50;;;21.40;99.90;;;;;;5046140;28;20206;-77
2022/09/09 04:58:42;;;;;;;0.63;0.32;;;21.40;99.90;;;;;;5050446;28;20294;-77
2022/09/09 05:01:17;;;;;;;0.88;0.40;;;21.10;99.90;;;;;;5046250;28;20200;-77
2022/09/09 05:03:50;;;;;;;0.77;0.52;;;21.10;99.90;;;;;;5045724;28;20244;-77
2022/09/09 05:06:22;;;;;;;0.60;0.50;;;21.10;99.90;;;;;;5046973;28;20200;-77
2022/09/09 05:08:53;;;;;;;0.70;0.60;;;21.20;99.90;;;;;;5053382;28;20196;-77
2022/09/09 05:11:25;;;;;;;1.10;0.50;;;21.30;99.90;;;;;;5046326;28;20212;-77
2022/09/09 05:13:56;;;;;;;0.70;0.40;;;21.30;99.90;;;;;;5047799;28;20298;-77
2022/09/09 05:16:29;;;;;;;0.60;0.40;;;21.30;99.90;;;;;;5047128;28;20204;-77
2022/09/09 05:19:03;;;;;;;0.45;0.30;;;21.30;99.90;;;;;;5047207;28;20198;-78
2022/09/09 05:21:34;;;;;;;2.40;0.47;;;21.30;99.90;;;;;;5050193;28;20211;-79
2022/09/09 05:24:05;;;;;;;3.78;0.90;;;21.30;99.90;;;;;;5049267;28;20224;-76
2022/09/09 05:26:35;;;;;;;4.65;1.67;;;21.40;99.90;;;;;;5044969;28;20220;-77
2022/09/09 05:29:06;;;;;;;5.10;1.70;;;21.30;99.90;;;;;;5047056;28;20200;-78
2022/09/09 05:31:39;;;;;;;4.20;1.33;;;21.30;99.90;;;;;;5046652;28;20200;-79
2022/09/09 05:34:09;;;;;;;6.90;1.88;;;21.30;99.90;;;;;;5046957;28;20215;-78
2022/09/09 05:36:40;;;;;;;4.30;1.63;;;21.30;99.90;;;;;;5047920;28;20686;-77
2022/09/09 05:39:11;;;;;;;3.65;1.45;;;21.40;99.90;;;;;;5045540;28;20231;-77
2022/09/09 05:41:44;;;;;;;3.65;1.52;;;21.40;99.90;;;;;;5046927;28;20694;-78
2022/09/09 05:44:15;;;;;;;3.05;1.45;;;21.50;99.90;;;;;;5047040;28;20223;-77
2022/09/09 05:46:48;;;;;;;5.30;1.92;;;21.60;99.90;;;;;;5052760;28;20200;-79
2022/09/09 05:49:18;;;;;;;6.78;1.80;;;21.40;99.90;;;;;;5047261;28;20207;-79
2022/09/09 05:51:50;;;;;;;4.72;1.77;;;21.30;99.90;;;;;;5047386;28;20200;-80
2022/09/09 05:54:21;;;;;;;3.10;1.60;;;21.10;99.90;;;;;;5050012;28;20226;-82
2022/09/09 05:56:53;;;;;;;10.27;2.30;;;21.10;99.90;;;;;;5063445;28;20196;-79
2022/09/09 05:59:24;;;;;;;5.50;2.00;;;21.00;99.90;;;;;;5062997;28;20196;-80
2022/09/09 06:01:57;;;;;;;4.32;1.35;;;20.80;99.90;;;;;;5046265;28;20861;-79
2022/09/09 06:04:30;;;;;;;4.47;1.73;;;20.80;99.90;;;;;;5047288;28;20268;-80
2022/09/09 06:07:00;;;;;;;4.57;1.70;;;20.70;99.90;;;;;;5045920;28;20339;-77
2022/09/09 06:09:31;;;;;;;6.95;1.90;;;20.60;99.90;;;;;;5046237;28;20232;-79
2022/09/09 06:12:02;;;;;;;4.78;2.30;;;20.60;99.90;;;;;;5045886;28;20340;-79
2022/09/09 06:14:33;;;;;;;4.68;2.47;;;20.60;99.90;;;;;;5045806;28;20208;-80
2022/09/09 06:17:07;;;;;;;3.13;1.40;;;20.60;99.90;;;;;;5045047;28;20204;-79
2022/09/09 06:19:39;;;;;;;2.58;1.45;;;20.60;99.90;;;;;;5049192;28;20211;-79
2022/09/09 06:22:12;;;;;;;3.67;1.30;;;20.80;99.90;;;;;;5057255;28;20192;-80
2022/09/09 06:24:45;;;;;;;5.38;1.02;;;21.10;99.90;;;;;;5070374;28;20221;-80
2022/09/09 06:27:16;;;;;;;3.72;1.27;;;21.40;99.90;;;;;;5070090;28;20226;-80
2022/09/09 06:29:50;;;;;;;2.10;1.00;;;21.50;99.90;;;;;;5076296;28;20195;-81
2022/09/09 06:32:22;;;;;;;1.58;0.80;;;21.70;99.90;;;;;;5055714;28;20206;-81
2022/09/09 06:34:53;;;;;;;1.98;0.80;;;21.70;99.90;;;;;;5056209;28;20208;-82
2022/09/09 06:37:26;;;;;;;1.48;1.00;;;21.70;99.90;;;;;;5056110;28;20204;-82
2022/09/09 06:39:57;;;;;;;2.35;0.80;;;21.50;99.90;;;;;;5055491;28;20239;-79
2022/09/09 06:42:28;;;;;;;4.00;0.98;;;21.50;99.90;;;;;;5054466;28;20189;-81
2022/09/09 06:44:58;;;;;;;4.05;1.10;;;21.40;99.90;;;;;;5052492;28;20203;-80
2022/09/09 06:47:33;;;;;;;1.73;1.30;;;21.60;99.90;;;;;;5051493;28;20206;-80
2022/09/09 06:50:05;;;;;;;1.55;0.93;;;21.90;99.90;;;;;;5049922;28;20199;-80
2022/09/09 06:52:36;;;;;;;2.03;1.10;;;22.30;99.90;;;;;;5050139;28;20809;-80
2022/09/09 06:55:07;;;;;;;2.42;1.23;;;22.60;99.90;;;;;;5050704;28;20207;-81
2022/09/09 06:57:37;;;;;;;5.88;1.83;;;22.70;99.90;;;;;;5050685;28;20207;-80
2022/09/09 07:00:09;;;;;;;4.55;2.08;;;22.70;99.90;;;;;;5053244;28;20196;-81
2022/09/09 07:02:44;;;;;;;4.82;1.85;;;22.50;99.90;;;;;;5048837;28;20231;-82
2022/09/09 07:05:15;;;;;;;5.30;1.83;;;22.20;99.90;;;;;;5049988;28;20200;-81
2022/09/09 07:07:46;;;;;;;7.63;2.15;;;22.00;99.90;;;;;;5049679;28;20210;-82
2022/09/09 07:10:17;;;;;;;4.82;1.70;;;21.70;99.90;;;;;;5049435;28;20200;-80
2022/09/09 07:12:52;;;;;;;5.32;1.85;;;21.40;99.90;;;;;;5050386;28;20207;-81
2022/09/09 07:15:26;;;;;;;5.35;1.67;;;21.30;99.90;;;;;;5049136;28;20198;-81
2022/09/09 07:18:03;;;;;;;4.60;1.60;;;21.10;99.90;;;;;;5050239;28;20653;-80
2022/09/09 07:20:34;;;;;;;1.80;1.30;;;20.90;99.90;;;;;;5049405;28;20249;-81
2022/09/09 07:23:05;;;;;;;3.08;1.50;;;20.70;99.90;;;;;;5050370;28;20588;-81
2022/09/09 07:25:36;;;;;;;3.72;1.63;;;20.50;99.90;;;;;;5049642;28;20661;-81
2022/09/09 07:28:08;;;;;;;2.70;1.38;;;20.40;99.90;;;;;;5049506;28;20202;-79
2022/09/09 07:30:39;;;;;;;2.58;1.40;;;20.30;99.90;;;;;;5048101;28;20629;-80
2022/09/09 07:33:12;;;;;;;2.55;1.40;;;20.20;99.90;;;;;;5050603;28;21925;-80
2022/09/09 07:35:43;;;;;;;3.83;1.38;;;20.10;99.90;;;;;;5052634;28;20235;-80
2022/09/09 07:38:14;;;;;;;3.90;1.85;;;20.00;99.90;;;;;;5049008;28;20235;-80
2022/09/09 07:40:45;;;;;;;4.00;1.70;;;19.90;99.90;;;;;;5049635;28;20199;-80
2022/09/09 07:43:18;;;;;;;4.55;1.52;;;19.80;99.90;;;;;;5048407;28;21020;-80
2022/09/09 07:45:49;;;;;;;7.53;1.80;;;19.70;99.90;;;;;;5066171;28;20676;-81
2022/09/09 07:48:22;;;;;;;3.65;1.50;;;19.60;99.90;;;;;;5073347;28;20196;-81
2022/09/09 07:50:53;;;;;;;3.58;1.65;;;19.50;99.90;;;;;;5073906;28;20211;-81
2022/09/09 07:53:24;;;;;;;3.50;1.50;;;19.50;99.90;;;;;;5058279;28;20298;-81
2022/09/09 07:55:55;;;;;;;2.47;1.38;;;19.50;99.90;;;;;;5049163;28;20196;-80
2022/09/09 07:58:26;;;;;;;5.43;1.75;;;19.30;99.90;;;;;;5049509;28;20307;-79
2022/09/09 08:00:57;;;;;;;5.30;1.73;;;19.30;99.90;;;;;;5050426;28;20196;-79
2022/09/09 08:03:30;;;;;;;4.70;1.88;;;19.30;99.90;;;;;;5048213;28;20235;-80
2022/09/09 08:06:06;;;;;;;5.82;1.95;;;19.30;99.90;;;;;;5047864;28;20722;-80
2022/09/09 08:08:38;;;;;;;6.63;1.92;;;19.20;99.90;;;;;;5047819;28;21017;-80
2022/09/09 08:11:11;;;;;;;5.43;1.83;;;19.20;99.90;;;;;;5051355;28;20200;-80
2022/09/09 08:13:43;;;;;;;7.22;2.30;;;19.10;99.90;;;;;;5049780;28;20526;-80
2022/09/09 08:16:16;;;;;;;4.38;2.00;;;19.10;99.90;;;;;;5048558;28;20199;-80
2022/09/09 08:18:49;;;;;;;4.30;2.20;;;19.10;99.90;;;;;;5048382;28;20200;-80
2022/09/09 08:21:22;;;;;;;5.60;2.22;;;19.00;99.90;;;;;;5049301;28;20911;-80
2022/09/09 08:23:55;;;;;;;4.65;2.00;;;19.00;99.90;;;;;;5047885;28;20254;-80
2022/09/09 08:26:28;;;;;;;3.90;2.00;;;19.00;99.90;;;;;;5047002;28;20293;-80
2022/09/09 08:29:03;;;;;;;4.22;1.77;;;19.00;99.90;;;;;;5048428;28;20216;-78
2022/09/09 08:31:36;;;;;;;6.40;2.25;;;18.90;99.90;;;;;;5049824;28;20224;-80
2022/09/09 08:34:09;;;;;;;4.68;2.42;;;18.90;99.90;;;;;;5048385;28;20250;-80
2022/09/09 08:36:42;;;;;;;4.88;1.92;;;18.80;99.90;;;;;;5050912;28;20567;-81
2022/09/09 08:39:14;;;;;;;4.32;1.80;;;18.80;99.90;;;;;;5047530;28;20254;-81
2022/09/09 08:42:07;;;;;;;5.43;1.50;;;18.80;99.90;;;;;;5046899;28;20235;-81
2022/09/09 08:45:00;;;;;;;2.60;1.35;;;18.70;99.90;;;;;;5053182;28;20238;-81
2022/09/09 08:47:42;;;;;;;2.92;1.25;;;18.70;99.90;;;;;;5047121;28;20204;-79
2022/09/09 08:50:24;;;;;;;1.60;1.17;;;18.70;99.90;;;;;;5047224;28;20223;-81
2022/09/09 08:53:02;;;;;;;1.45;1.17;;;18.70;99.90;;;;;;5046114;28;20211;-80
2022/09/09 08:55:42;;;;;;;1.83;1.20;;;18.60;99.90;;;;;;5047834;28;20200;-80
2022/09/09 08:58:19;;;;;;;2.45;1.30;;;18.60;99.90;;;;;;5047720;28;20188;-80
2022/09/09 09:01:03;;;;;;;2.83;1.23;;;18.60;99.90;;;;;;5046035;28;21252;-81
2022/09/09 09:03:46;;;;;;;2.33;1.50;;;18.50;99.90;;;;;;5046134;28;20220;-81
2022/09/09 09:06:36;;;;;;;4.75;3.13;;;18.50;99.90;;;;;;5045412;28;20530;-80
2022/09/09 09:09:14;;;;;;;2.10;1.75;;;18.50;99.90;;;;;;5046010;28;20297;-80
2022/09/09 09:11:50;;;;;;;3.55;1.38;;;18.40;99.90;;;;;;5047039;28;20204;-80
2022/09/09 09:14:24;;;;;;;3.38;1.80;;;18.40;99.90;;;;;;5047576;28;20199;-80
2022/09/09 09:16:58;;;;;;;1.40;1.30;;;18.40;99.90;;;;;;5046666;28;20204;-81
2022/09/09 09:19:30;;;;;;;3.08;1.50;;;18.40;99.90;;;;;;5047536;28;20200;-80
2022/09/09 09:22:09;;;;;;;3.63;1.50;;;18.40;99.90;;;;;;5046926;28;20196;-81
2022/09/09 09:24:51;;;;;;;1.80;1.15;;;18.30;99.90;;;;;;5046341;28;20223;-80
2022/09/09 09:27:33;;;;;;;2.13;1.00;;;18.30;99.90;;;;;;5045324;28;20219;-80
2022/09/09 09:30:08;;;;;;;1.20;1.10;;;18.30;99.90;;;;;;5049948;28;20201;-79
2022/09/09 09:32:42;;;;;;;3.17;1.20;;;18.30;99.90;;;;;;5046454;28;20207;-80
2022/09/09 09:35:16;;;;;;;1.52;1.20;;;18.30;99.90;;;;;;5052526;28;20207;-80
2022/09/09 09:37:50;;;;;;;1.70;1.10;;;18.30;99.90;;;;;;5048950;28;20214;-81
2022/09/09 09:40:22;;;;;;;2.00;1.20;;;18.30;99.90;;;;;;5047027;28;20234;-81
2022/09/09 09:42:57;;;;;;;2.20;1.70;;;18.20;99.90;;;;;;5053760;28;20678;-81
2022/09/09 09:45:34;;;;;;;1.95;1.33;;;18.20;99.90;;;;;;5049896;28;20231;-82
2022/09/09 09:48:07;;;;;;;1.65;1.35;;;18.20;99.90;;;;;;5047715;28;20199;-81
2022/09/09 09:50:39;;;;;;;1.38;1.15;;;18.20;99.90;;;;;;5043823;28;20220;-81
2022/09/09 09:53:23;;;;;;;1.90;1.30;;;18.20;99.90;;;;;;5043961;28;20196;-81
2022/09/09 09:56:00;;;;;;;1.52;1.10;;;18.20;99.90;;;;;;5045341;28;20196;-81
2022/09/09 09:58:34;;;;;;;1.65;1.05;;;18.20;99.90;;;;;;5045954;28;20204;-81
2022/09/09 10:01:06;;;;;;;2.20;1.23;;;18.10;99.90;;;;;;5046200;28;20223;-80
2022/09/09 10:03:40;;;;;;;1.17;0.98;;;18.10;99.90;;;;;;5045434;28;20726;-81
2022/09/09 10:06:12;;;;;;;0.90;0.90;;;18.10;99.90;;;;;;5046204;28;20213;-80
2022/09/09 10:08:51;;;;;;;1.10;0.90;;;18.00;99.90;;;;;;5045863;28;20191;-81
2022/09/09 10:11:33;;;;;;;1.10;1.00;;;18.00;99.90;;;;;;5047497;28;20199;-81
2022/09/09 10:14:14;;;;;;;1.25;1.00;;;18.00;99.90;;;;;;5047133;28;20200;-81
2022/09/09 10:17:05;;;;;;;1.30;0.90;;;18.00;99.90;;;;;;5050219;28;20991;-83
2022/09/09 10:19:37;;;;;;;1.10;1.00;;;17.90;99.90;;;;;;5047791;28;20188;-82
2022/09/09 10:22:18;;;;;;;2.17;0.90;;;17.90;99.90;;;;;;5046342;28;20197;-82
2022/09/09 10:25:22;;;;;;;1.30;1.02;;;17.90;99.90;;;;;;5048471;28;20227;-82
2022/09/09 10:28:12;;;;;;;1.77;1.00;;;17.90;99.90;;;;;;5044391;28;20258;-82
2022/09/09 10:30:52;;;;;;;1.10;1.00;;;17.90;99.90;;;;;;5047780;28;20287;-83
2022/09/09 10:33:30;;;;;;;1.17;1.08;;;17.90;99.90;;;;;;5049231;28;20199;-82
2022/09/09 10:36:09;;;;;;;1.58;1.20;;;17.80;99.90;;;;;;5046534;28;20694;-82
2022/09/09 10:38:45;;;;;;;1.23;1.13;;;17.80;99.90;;;;;;5045642;28;20731;-82
2022/09/09 10:41:22;;;;;;;1.55;1.38;;;17.80;99.90;;;;;;5048722;28;20245;-82
2022/09/09 10:44:15;;;;;;;1.10;1.00;;;17.80;99.90;;;;;;5052010;28;20579;-82
2022/09/09 10:47:08;;;;;;;0.88;0.80;;;17.80;99.90;;;;;;5048063;28;20202;-83
2022/09/09 10:50:06;;;;;;;0.80;0.80;;;17.70;99.90;;;;;;5049320;28;20749;-83
2022/09/09 10:52:47;;;;;;;1.35;0.90;;;17.80;99.90;;;;;;5045617;28;20696;-82
2022/09/09 10:55:21;;;;;;;0.80;0.80;;;17.80;99.90;;;;;;5046615;28;20231;-82
2022/09/09 10:57:55;;;;;;;0.80;0.80;;;17.80;99.90;;;;;;5046381;28;20215;-82
2022/09/09 11:00:28;;;;;;;1.10;0.88;;;17.80;99.90;;;;;;5045976;28;21944;-82
2022/09/09 11:03:02;;;;;;;1.02;0.82;;;17.80;99.90;;;;;;5046086;28;20709;-82
2022/09/09 11:05:40;;;;;;;0.82;0.70;;;17.80;99.90;;;;;;5048439;28;20231;-81
2022/09/09 11:08:16;;;;;;;0.80;0.80;;;17.70;99.90;;;;;;5050709;28;20488;-82
2022/09/09 11:10:52;;;;;;;0.70;0.70;;;17.80;99.90;;;;;;5047802;28;20534;-82
2022/09/09 11:13:29;;;;;;;0.80;0.70;;;17.70;99.90;;;;;;5046159;28;20191;-81
2022/09/09 11:16:06;;;;;;;0.80;0.60;;;17.70;99.90;;;;;;5046259;28;20643;-83
2022/09/09 11:18:42;;;;;;;0.70;0.70;;;17.70;99.90;;;;;;5045584;28;20196;-83
2022/09/09 11:21:21;;;;;;;0.63;0.63;;;17.80;99.90;;;;;;5046116;28;20221;-82
2022/09/09 11:23:59;;;;;;;0.75;0.75;;;17.80;99.90;;;;;;5046053;28;20212;-81
2022/09/09 11:26:36;;;;;;;0.57;0.57;;;17.80;99.90;;;;;;5046169;28;20206;-82
2022/09/09 11:29:39;;;;;;;1.38;0.80;;;17.80;99.90;;;;;;5050122;28;20810;-82
2022/09/09 11:32:22;;;;;;;1.00;0.77;;;17.90;99.90;;;;;;5049069;28;20200;-81
2022/09/09 11:35:00;;;;;;;1.02;0.70;;;17.80;99.90;;;;;;5049808;28;20417;-81
2022/09/09 11:38:20;;;;;;;1.25;0.75;;;17.80;99.90;;;;;;5049722;28;20907;-82
2022/09/09 11:40:59;;;;;;;0.85;0.70;;;17.80;99.90;;;;;;4986782;28;20203;-84
2022/09/09 11:43:34;;;;;;;0.68;0.68;;;17.80;99.90;;;;;;4990778;28;20631;-82
2022/09/09 11:46:07;;;;;;;0.75;0.70;;;17.80;99.90;;;;;;5027913;28;20227;-82
2022/09/09 11:48:43;;;;;;;1.30;0.60;;;17.80;99.90;;;;;;5050795;28;20296;-82
2022/09/09 11:51:16;;;;;;;1.05;0.70;;;17.80;99.90;;;;;;5050356;28;20196;-82
2022/09/09 11:53:54;;;;;;;2.15;0.70;;;17.90;99.90;;;;;;5050395;28;20208;-83
2022/09/09 11:56:38;;;;;;;1.20;0.70;;;17.80;99.90;;;;;;5058824;28;20262;-82
2022/09/09 11:59:25;;;;;;;0.88;0.80;;;17.90;99.90;;;;;;5072746;28;20222;-81
2022/09/09 12:05:01;;;;;;;1.40;0.82;;;17.90;99.90;;;;;;5066137;28;20231;-83
2022/09/09 12:07:37;;;;;;;0.95;0.80;;;17.90;99.90;;;;;;5070034;28;20269;-83
2022/09/09 12:10:28;;;;;;;0.50;0.50;;;17.90;99.90;;;;;;5072509;28;20208;-85
2022/09/09 12:13:11;;;;;;;0.60;0.60;;;17.90;99.90;;;;;;5057386;28;20219;-84
2022/09/09 12:15:59;;;;;;;3.22;0.52;;;17.90;99.90;;;;;;5069401;28;20199;-83
2022/09/09 12:18:39;;;;;;;0.80;0.80;;;17.90;99.90;;;;;;5045941;28;20199;-84
2022/09/09 12:21:16;;;;;;;1.88;0.90;;;17.90;99.90;;;;;;5059372;28;20371;-81
2022/09/09 12:23:52;;;;;;;0.73;0.70;;;17.90;99.90;;;;;;5061848;28;20295;-81
2022/09/09 12:26:34;;;;;;;0.80;0.60;;;17.90;99.90;;;;;;5064325;28;20231;-80
2022/09/09 12:32:10;;;;;;;0.70;0.70;;;17.90;99.90;;;;;;5058754;28;20247;-81
2022/09/09 12:34:55;;;;;;;0.93;0.60;;;17.90;99.90;;;;;;5063449;28;21623;-79
2022/09/09 12:37:34;;;;;;;0.80;0.50;;;17.90;99.90;;;;;;5051743;28;20204;-81
2022/09/09 12:40:11;;;;;;;0.63;0.63;;;17.90;99.90;;;;;;5064070;28;20224;-81
2022/09/09 12:42:48;;;;;;;1.10;0.90;;;17.90;99.90;;;;;;5056140;28;20204;-81
2022/09/09 12:45:28;;;;;;;1.75;0.70;;;17.80;99.90;;;;;;5060725;28;20224;-81
2022/09/09 12:48:08;;;;;;;1.05;0.50;;;17.80;99.90;;;;;;5058081;28;20290;-81
2022/09/09 12:50:48;;;;;;;0.47;0.45;;;17.80;99.90;;;;;;5060443;28;20215;-79
2022/09/09 12:53:28;;;;;;;0.40;0.40;;;17.80;99.90;;;;;;5061100;28;20200;-80
2022/09/09 12:56:07;;;;;;;0.60;0.60;;;17.80;99.90;;;;;;5063052;28;20195;-80
2022/09/09 12:58:40;;;;;;;1.25;0.50;;;17.80;99.90;;;;;;5064861;28;20218;-79
2022/09/09 13:01:25;;;;;;;0.47;0.47;;;17.80;99.90;;;;;;5065710;28;20223;-80
2022/09/09 13:03:59;;;;;;;0.28;0.28;;;17.80;99.90;;;;;;5063570;28;20198;-81
2022/09/09 13:06:41;;;;;;;0.63;0.30;;;17.80;99.90;;;;;;5061079;28;20255;-80
2022/09/09 13:09:13;;;;;;;0.68;0.30;;;17.80;99.90;;;;;;5058510;28;20235;-80
2022/09/09 13:11:47;;;;;;;0.50;0.40;;;17.90;99.90;;;;;;5058697;28;20209;-80
2022/09/09 13:14:21;;;;;;;0.52;0.30;;;17.90;99.90;;;;;;5060342;28;20284;-80
2022/09/09 13:17:08;;;;;;;0.32;0.30;;;17.90;99.90;;;;;;5062406;28;20199;-81
2022/09/09 13:19:52;;;;;;;0.30;0.20;;;17.90;99.90;;;;;;5060525;28;20210;-82
2022/09/09 13:22:42;;;;;;;0.45;0.30;;;17.90;99.90;;;;;;5068533;28;20205;-81
2022/09/09 13:25:27;;;;;;;0.40;0.40;;;17.80;99.90;;;;;;5069270;28;20233;-81
2022/09/09 13:28:11;;;;;;;1.50;0.30;;;17.80;99.90;;;;;;5066991;28;22259;-80
2022/09/09 13:31:06;;;;;;;0.77;0.30;;;17.80;99.90;;;;;;5063638;28;20736;-80
2022/09/09 13:33:38;;;;;;;0.28;0.28;;;17.80;99.90;;;;;;5054726;28;20224;-81
2022/09/09 13:36:12;;;;;;;0.40;0.40;;;17.80;99.90;;;;;;5049492;28;20208;-80
2022/09/09 13:38:59;;;;;;;0.30;0.30;;;17.80;99.90;;;;;;5047615;28;20314;-80